createdAt,value
2018-02-09T00:00:12.239Z,121.53
2018-02-09T00:02:41.353Z,136.23
2018-02-09T00:05:11.230Z,137.53
2018-02-09T00:07:42.479Z,131.83
2018-02-09T00:10:11.594Z,135.83
2018-02-09T00:12:41.706Z,124.33
2018-02-09T00:15:10.842Z,128.20
2018-02-09T00:17:40.299Z,137.57
2018-02-09T00:20:09.455Z,138.33
2018-02-09T00:22:52.331Z,120.40
2018-02-09T00:25:22.083Z,131.20
2018-02-09T00:27:51.796Z,135.87
2018-02-09T00:30:21.651Z,118.17
2018-02-09T00:32:50.749Z,121.30
2018-02-09T00:35:19.863Z,126.87
2018-02-09T00:37:49.745Z,119.57
2018-02-09T00:40:18.851Z,124.37
2018-02-09T00:42:47.965Z,122.47
2018-02-09T00:45:18.428Z,128.67
2018-02-09T00:47:48.307Z,123.93
2018-02-09T00:50:18.177Z,140.53
2018-02-09T00:52:47.302Z,133.37
2018-02-09T00:55:16.395Z,120.87
2018-02-09T00:57:45.517Z,125.33
2018-02-09T01:00:15.406Z,120.40
2018-02-09T01:02:44.515Z,107.87
2018-02-09T01:05:13.650Z,129.90
2018-02-09T01:07:42.741Z,124.13
2018-02-09T01:10:11.860Z,124.57
2018-02-09T01:12:41.602Z,120.30
2018-02-09T01:15:11.350Z,123.73
2018-02-09T01:17:41.225Z,191.47
2018-02-09T01:20:10.375Z,156.17
2018-02-09T01:22:39.455Z,130.37
2018-02-09T01:25:08.563Z,123.13
2018-02-09T01:27:37.661Z,119.43
2018-02-09T01:30:06.756Z,123.23
2018-02-09T01:32:36.645Z,122.20
2018-02-09T01:35:06.523Z,116.73
2018-02-09T01:37:35.644Z,123.90
2018-02-09T01:40:04.763Z,123.27
2018-02-09T01:42:33.907Z,124.20
2018-02-09T01:45:03.020Z,121.97
2018-02-09T01:47:32.134Z,120.87
2018-02-09T01:50:16.625Z,117.87
2018-02-09T01:52:45.730Z,112.43
2018-02-09T01:55:14.841Z,118.00
2018-02-09T01:57:43.970Z,125.03
2018-02-09T02:00:13.859Z,126.27
2018-02-09T02:02:42.984Z,121.87
2018-02-09T02:05:12.066Z,117.57
2018-02-09T02:07:41.190Z,126.37
2018-02-09T02:10:11.083Z,120.87
2018-02-09T02:12:40.207Z,123.17
2018-02-09T02:15:09.314Z,129.13
2018-02-09T02:17:38.426Z,118.80
2018-02-09T02:20:07.555Z,112.70
2018-02-09T02:22:36.724Z,117.57
2018-02-09T02:25:05.835Z,128.23
2018-02-09T02:27:34.928Z,126.80
2018-02-09T02:30:04.046Z,130.77
2018-02-09T02:32:33.167Z,128.93
2018-02-09T02:35:03.058Z,139.13
2018-02-09T02:37:32.170Z,123.97
2018-02-09T02:40:01.286Z,134.10
2018-02-09T02:42:30.377Z,122.13
2018-02-09T02:44:59.504Z,117.97
2018-02-09T02:47:28.602Z,117.77
2018-02-09T02:49:58.561Z,126.73
2018-02-09T02:52:27.678Z,120.93
2018-02-09T02:54:57.570Z,122.63
2018-02-09T02:57:26.664Z,120.23
2018-02-09T02:59:55.781Z,116.40
2018-02-09T03:02:26.265Z,116.40
2018-02-09T03:04:55.565Z,126.53
2018-02-09T03:07:24.675Z,113.40
2018-02-09T03:09:53.797Z,116.10
2018-02-09T03:12:23.686Z,117.20
2018-02-09T03:14:52.798Z,122.70
2018-02-09T03:17:21.888Z,117.00
2018-02-09T03:19:50.998Z,122.93
2018-02-09T03:22:21.030Z,112.73
2018-02-09T03:24:50.897Z,125.13
2018-02-09T03:27:20.024Z,124.70
2018-02-09T03:29:49.905Z,111.13
2018-02-09T03:32:19.010Z,116.20
2018-02-09T03:34:48.101Z,114.57
2018-02-09T03:37:18.005Z,123.77
2018-02-09T03:39:47.106Z,118.17
2018-02-09T03:42:16.227Z,111.63
2018-02-09T03:44:46.056Z,117.90
2018-02-09T03:47:15.933Z,121.10
2018-02-09T03:49:45.042Z,113.63
2018-02-09T03:52:14.160Z,121.03
2018-02-09T03:54:44.022Z,114.53
2018-02-09T03:57:13.129Z,123.67
2018-02-09T03:59:43.018Z,125.10
2018-02-09T04:02:12.136Z,107.43
2018-02-09T04:04:41.267Z,112.57
2018-02-09T04:07:11.131Z,113.23
2018-02-09T04:09:40.262Z,118.70
2018-02-09T04:12:09.366Z,115.93
2018-02-09T04:14:38.485Z,126.77
2018-02-09T04:17:08.354Z,124.17
2018-02-09T04:19:37.706Z,127.00
2018-02-09T04:22:06.811Z,118.30
2018-02-09T04:24:35.930Z,122.20
2018-02-09T04:27:05.045Z,110.40
2018-02-09T04:29:34.891Z,104.23
2018-02-09T04:32:04.751Z,119.10
2018-02-09T04:34:33.884Z,112.30
2018-02-09T04:37:02.994Z,118.43
2018-02-09T04:39:32.114Z,125.23
2018-02-09T04:42:01.209Z,121.90
2018-02-09T04:44:30.427Z,111.97
2018-02-09T04:46:59.522Z,128.10
2018-02-09T04:49:28.621Z,123.73
2018-02-09T04:51:57.757Z,110.53
2018-02-09T04:54:26.870Z,135.53
2018-02-09T04:56:55.984Z,126.87
2018-02-09T04:59:25.851Z,120.97
2018-02-09T05:01:54.964Z,139.20
2018-02-09T05:04:24.056Z,145.43
2018-02-09T05:06:53.241Z,143.60
2018-02-09T05:09:22.369Z,132.33
2018-02-09T05:11:52.255Z,126.00
2018-02-09T05:14:22.130Z,131.77
2018-02-09T05:16:51.243Z,124.70
2018-02-09T05:19:21.181Z,137.23
2018-02-09T05:21:50.311Z,135.17
2018-02-09T05:24:20.174Z,139.33
2018-02-09T05:26:49.284Z,148.77
2018-02-09T05:29:18.376Z,125.13
2018-02-09T05:31:47.539Z,124.00
2018-02-09T05:34:16.649Z,157.97
2018-02-09T05:36:45.749Z,163.37
2018-02-09T05:39:14.886Z,154.83
2018-02-09T05:41:44.021Z,133.23
2018-02-09T05:44:13.126Z,135.10
2018-02-09T05:46:42.355Z,142.20
2018-02-09T05:49:11.476Z,109.43
2018-02-09T05:51:40.627Z,116.47
2018-02-09T05:54:10.586Z,124.47
2018-02-09T05:56:39.738Z,140.23
2018-02-09T05:59:08.877Z,121.30
2018-02-09T06:01:38.779Z,130.47
2018-02-09T06:04:07.895Z,131.43
2018-02-09T06:06:40.120Z,129.97
2018-02-09T06:09:09.220Z,133.00
2018-02-09T06:11:38.378Z,119.30
2018-02-09T06:14:08.248Z,118.53
2018-02-09T06:16:37.361Z,167.63
2018-02-09T06:19:06.496Z,155.50
2018-02-09T06:21:35.914Z,136.10
2018-02-09T06:24:05.059Z,127.20
2018-02-09T06:26:34.174Z,137.60
2018-02-09T06:29:04.050Z,119.90
2018-02-09T06:31:33.154Z,125.73
2018-02-09T06:34:02.254Z,137.70
2018-02-09T06:36:31.378Z,138.87
2018-02-09T06:39:01.238Z,140.67
2018-02-09T06:41:30.349Z,121.57
2018-02-09T06:43:59.457Z,121.40
2018-02-09T06:46:28.573Z,115.43
2018-02-09T06:48:58.447Z,126.07
2018-02-09T06:51:27.584Z,127.93
2018-02-09T06:53:57.449Z,134.07
2018-02-09T06:56:26.565Z,122.40
2018-02-09T06:58:55.671Z,129.17
2018-02-09T07:01:24.842Z,127.60
2018-02-09T07:03:53.936Z,133.67
2018-02-09T07:06:23.054Z,131.73
2018-02-09T07:08:53.682Z,129.70
2018-02-09T07:11:22.786Z,139.40
2018-02-09T07:13:51.933Z,137.57
2018-02-09T07:16:21.790Z,134.07
2018-02-09T07:18:50.924Z,127.33
2018-02-09T07:21:21.522Z,122.83
2018-02-09T07:23:50.661Z,134.00
2018-02-09T07:26:19.771Z,123.33
2018-02-09T07:28:48.894Z,116.77
2018-02-09T07:31:17.982Z,201.30
2018-02-09T07:33:47.096Z,187.20
2018-02-09T07:36:16.210Z,168.57
2018-02-09T07:38:45.342Z,140.37
2018-02-09T07:41:14.460Z,153.17
2018-02-09T07:43:44.807Z,116.87
2018-02-09T07:46:14.667Z,106.10
2018-02-09T07:48:44.547Z,112.97
2018-02-09T07:51:14.837Z,117.40
2018-02-09T07:53:43.954Z,138.53
2018-02-09T07:56:13.052Z,144.93
2018-02-09T07:58:42.183Z,147.67
2018-02-09T08:01:12.063Z,140.60
2018-02-09T08:03:41.928Z,132.43
2018-02-09T08:06:11.068Z,123.93
2018-02-09T08:08:40.173Z,135.47
2018-02-09T08:11:10.209Z,129.13
2018-02-09T08:13:39.316Z,146.77
2018-02-09T08:16:09.210Z,135.90
2018-02-09T08:18:38.330Z,117.57
2018-02-09T08:21:07.449Z,118.63
2018-02-09T08:23:37.385Z,132.50
2018-02-09T08:26:06.775Z,129.47
2018-02-09T08:28:36.138Z,124.77
2018-02-09T08:31:06.010Z,127.07
2018-02-09T08:33:35.124Z,121.67
2018-02-09T08:36:04.231Z,118.93
2018-02-09T08:38:33.325Z,114.30
2018-02-09T08:41:02.458Z,120.13
2018-02-09T08:43:31.586Z,133.00
2018-02-09T08:46:01.760Z,132.73
2018-02-09T08:48:31.686Z,206.80
2018-02-09T08:51:01.566Z,160.03
2018-02-09T08:53:30.691Z,228.70
2018-02-09T08:56:00.553Z,240.50
2018-02-09T08:58:29.666Z,241.87
2018-02-09T09:00:58.769Z,199.70
2018-02-09T09:03:27.907Z,171.13
2018-02-09T09:05:57.012Z,172.93
2018-02-09T09:08:26.131Z,295.37
2018-02-09T09:10:55.219Z,434.43
2018-02-09T09:13:24.361Z,277.83
2018-02-09T09:15:53.478Z,164.70
2018-02-09T09:18:23.368Z,133.97
2018-02-09T09:20:52.470Z,136.50
2018-02-09T09:23:21.592Z,150.70
2018-02-09T09:25:50.689Z,162.43
2018-02-09T09:28:19.814Z,130.13
2018-02-09T09:30:48.924Z,168.90
2018-02-09T09:33:18.026Z,147.90
2018-02-09T09:35:47.123Z,129.10
2018-02-09T09:38:16.238Z,139.73
2018-02-09T09:40:47.087Z,125.77
2018-02-09T09:43:16.190Z,131.40
2018-02-09T09:45:45.735Z,122.87
2018-02-09T09:48:14.845Z,114.97
2018-02-09T09:50:43.959Z,110.10
2018-02-09T09:53:13.103Z,115.13
2018-02-09T09:55:42.201Z,112.60
2018-02-09T09:58:12.091Z,113.17
2018-02-09T10:00:41.206Z,119.80
2018-02-09T10:03:10.314Z,132.27
2018-02-09T10:05:39.430Z,117.87
2018-02-09T10:08:08.572Z,115.63
2018-02-09T10:10:37.659Z,111.33
2018-02-09T10:13:06.793Z,108.50
2018-02-09T10:15:36.397Z,117.93
2018-02-09T10:18:05.490Z,112.23
2018-02-09T10:20:34.611Z,111.30
2018-02-09T10:23:03.750Z,105.67
2018-02-09T10:25:32.862Z,107.60
2018-02-09T10:28:02.746Z,96.70
2018-02-09T10:30:31.845Z,106.47
2018-02-09T10:33:00.953Z,94.60
2018-02-09T10:35:30.041Z,96.23
2018-02-09T10:37:59.166Z,97.63
2018-02-09T10:40:29.020Z,107.00
2018-02-09T10:42:58.138Z,105.13
2018-02-09T10:45:27.243Z,119.43
2018-02-09T10:47:56.348Z,96.00
2018-02-09T10:50:26.234Z,102.60
2018-02-09T10:52:55.412Z,100.70
2018-02-09T10:55:24.522Z,98.30
2018-02-09T10:57:54.290Z,97.70
2018-02-09T11:00:28.826Z,97.33
2018-02-09T11:02:57.939Z,104.10
2018-02-09T11:05:27.060Z,100.27
2018-02-09T11:07:56.550Z,99.03
2018-02-09T11:10:31.310Z,90.80
2018-02-09T11:13:01.456Z,92.87
2018-02-09T11:15:31.314Z,107.07
2018-02-09T11:18:00.438Z,94.80
2018-02-09T11:20:29.565Z,93.03
2018-02-09T11:22:59.420Z,103.10
2018-02-09T11:25:28.521Z,88.47
2018-02-09T11:27:58.013Z,87.57
2018-02-09T11:30:27.221Z,84.63
2018-02-09T11:32:56.367Z,82.57
2018-02-09T11:35:25.441Z,91.33
2018-02-09T11:37:54.528Z,85.03
2018-02-09T11:40:23.634Z,84.97
2018-02-09T11:42:52.835Z,87.30
2018-02-09T11:45:21.948Z,94.57
2018-02-09T11:47:51.837Z,81.97
2018-02-09T11:50:21.712Z,79.63
2018-02-09T11:52:50.798Z,97.10
2018-02-09T11:55:20.889Z,84.27
2018-02-09T11:57:51.308Z,86.13
2018-02-09T12:00:20.558Z,93.70
2018-02-09T12:02:49.779Z,79.40
2018-02-09T12:05:18.873Z,83.73
2018-02-09T12:07:48.737Z,74.13
2018-02-09T12:10:46.117Z,79.33
2018-02-09T12:47:52.401Z,63.43
2018-02-09T12:50:21.803Z,70.10
2018-02-09T12:52:51.661Z,80.53
2018-02-09T12:55:20.772Z,61.33
2018-02-09T12:57:49.863Z,70.67
2018-02-09T13:00:19.042Z,62.10
2018-02-09T13:02:48.146Z,72.07
2018-02-09T13:05:17.266Z,66.40
2018-02-09T13:07:47.157Z,67.40
2018-02-09T13:10:16.291Z,75.40
2018-02-09T13:13:03.918Z,71.23
2018-02-09T13:15:33.054Z,65.73
2018-02-09T13:18:02.159Z,71.63
2018-02-09T13:20:31.258Z,73.07
2018-02-09T13:23:18.095Z,71.00
2018-02-09T13:25:48.738Z,71.77
2018-02-09T13:41:53.962Z,60.63
2018-02-09T13:44:23.093Z,66.90
2018-02-09T13:46:52.198Z,68.40
2018-02-09T13:49:22.065Z,73.83
2018-02-09T13:51:51.180Z,79.43
2018-02-09T13:54:21.119Z,68.73
2018-02-09T13:56:50.257Z,62.87
2018-02-09T13:59:19.369Z,69.00
2018-02-09T14:01:48.505Z,67.20
2018-02-09T14:04:18.374Z,65.77
2018-02-09T14:06:48.220Z,70.97
2018-02-09T14:09:18.155Z,67.53
2018-02-09T14:11:47.242Z,58.30
2018-02-09T14:14:17.115Z,60.60
2018-02-09T14:16:46.252Z,61.20
2018-02-09T14:19:16.130Z,69.97
2018-02-09T14:21:45.211Z,68.67
2018-02-09T14:24:15.026Z,65.50
2018-02-09T14:26:44.110Z,81.13
2018-02-09T14:29:13.215Z,88.63
2018-02-09T14:31:43.112Z,90.43
2018-02-09T14:34:12.247Z,96.90
2018-02-09T14:36:41.333Z,86.80
2018-02-09T14:39:10.459Z,93.10
2018-02-09T14:41:39.555Z,93.77
2018-02-09T14:44:08.682Z,91.67
2018-02-09T14:46:39.110Z,95.77
2018-02-09T14:49:08.807Z,96.47
2018-02-09T14:51:37.937Z,101.87
2018-02-09T14:54:07.165Z,97.43
2018-02-09T14:56:37.045Z,94.23
2018-02-09T14:59:06.149Z,93.63
2018-02-09T15:01:35.250Z,87.70
2018-02-09T15:04:04.369Z,82.67
2018-02-09T15:06:33.452Z,83.30
2018-02-09T15:09:02.598Z,94.53
2018-02-09T15:11:31.718Z,98.30
2018-02-09T15:14:00.834Z,81.80
2018-02-09T15:16:29.940Z,71.53
2018-02-09T15:18:59.077Z,72.90
2018-02-09T15:21:28.950Z,78.17
2018-02-09T15:23:58.075Z,80.67
2018-02-09T15:26:27.926Z,87.00
2018-02-09T15:28:57.071Z,89.23
2018-02-09T15:31:26.174Z,91.53
2018-02-09T15:33:55.301Z,80.93
2018-02-09T15:36:24.395Z,71.97
2018-02-09T15:38:53.604Z,81.87
2018-02-09T15:41:23.583Z,75.43
2018-02-09T15:43:53.460Z,75.77
2018-02-09T15:46:22.608Z,80.93
2018-02-09T15:48:52.484Z,84.30
2018-02-09T15:51:21.591Z,79.50
2018-02-09T15:53:50.715Z,84.00
2018-02-09T15:56:20.606Z,92.77
2018-02-09T15:58:49.740Z,97.87
2018-02-09T16:01:18.853Z,92.87
2018-02-09T16:03:48.519Z,78.83
2018-02-09T16:06:18.418Z,83.30
2018-02-09T16:08:47.503Z,90.07
2018-02-09T16:11:16.626Z,77.10
2018-02-09T16:13:45.727Z,85.27
2018-02-09T16:16:14.862Z,78.67
2018-02-09T16:18:43.946Z,91.73
2018-02-09T16:21:13.069Z,89.60
2018-02-09T16:23:42.243Z,84.77
2018-02-09T16:26:11.360Z,83.70
2018-02-09T16:28:40.452Z,110.47
2018-02-09T16:31:09.584Z,110.80
2018-02-09T16:33:39.058Z,108.07
2018-02-09T16:36:08.167Z,103.90
2018-02-09T16:38:37.344Z,86.37
2018-02-09T16:41:06.461Z,99.27
2018-02-09T16:43:35.586Z,106.57
2018-02-09T16:46:05.454Z,92.70
2018-02-09T16:48:34.592Z,98.40
2018-02-09T16:51:04.053Z,102.20
2018-02-09T16:53:33.313Z,103.63
2018-02-09T16:56:03.171Z,97.37
2018-02-09T16:58:32.834Z,97.13
2018-02-09T17:01:03.095Z,93.07
2018-02-09T17:03:33.046Z,104.67
2018-02-09T17:06:03.289Z,96.03
2018-02-09T17:08:34.134Z,90.77
2018-02-09T17:11:04.649Z,156.23
2018-02-09T17:13:33.748Z,114.63
2018-02-09T17:16:02.845Z,99.90
2018-02-09T17:18:32.756Z,103.83
2018-02-09T17:21:03.546Z,133.30
2018-02-09T17:23:34.122Z,123.50
2018-02-09T17:26:03.519Z,113.40
2018-02-09T17:28:33.410Z,119.17
2018-02-09T17:31:03.404Z,125.93
2018-02-09T17:33:32.507Z,111.27
2018-02-09T17:36:04.658Z,101.33
2018-02-09T17:38:35.527Z,96.63
2018-02-09T17:41:06.000Z,94.27
2018-02-09T17:43:35.874Z,95.10
2018-02-09T17:46:05.002Z,101.87
2018-02-09T17:48:34.135Z,102.03
2018-02-09T17:51:03.255Z,103.50
2018-02-09T17:53:32.385Z,104.57
2018-02-09T17:56:01.537Z,103.03
2018-02-09T17:58:30.651Z,102.97
2018-02-09T18:00:59.779Z,102.30
2018-02-09T18:03:28.898Z,105.20
2018-02-09T18:05:58.025Z,108.17
2018-02-09T18:08:27.150Z,110.90
2018-02-09T18:10:56.312Z,116.00
2018-02-09T18:13:25.434Z,118.50
2018-02-09T18:15:55.632Z,126.23
2018-02-09T18:18:25.385Z,109.63
2018-02-09T18:20:55.979Z,115.40
2018-02-09T18:23:26.488Z,118.77
2018-02-09T18:25:55.647Z,116.73
2018-02-09T18:28:26.423Z,121.60
2018-02-09T18:30:56.359Z,131.50
2018-02-09T18:33:25.478Z,115.07
2018-02-09T18:35:54.591Z,109.33
2018-02-09T18:38:23.724Z,114.87
2018-02-09T18:40:52.845Z,112.83
2018-02-09T18:43:21.971Z,117.67
2018-02-09T18:45:51.071Z,119.93
2018-02-09T18:48:20.178Z,129.23
2018-02-09T18:50:50.830Z,108.23
2018-02-09T18:53:19.910Z,114.43
2018-02-09T18:55:50.858Z,114.27
2018-02-09T18:58:19.966Z,119.50
2018-02-09T19:00:49.120Z,115.27
2018-02-09T19:03:18.222Z,114.97
2018-02-09T19:05:48.291Z,99.67
2018-02-09T19:08:17.411Z,114.40
2018-02-09T19:10:47.319Z,108.13
2018-02-09T19:13:17.939Z,106.70
2018-02-09T19:15:47.815Z,112.37
2018-02-09T19:18:24.159Z,118.23
2018-02-09T19:21:02.828Z,114.63
2018-02-09T19:23:31.966Z,118.90
2018-02-09T19:26:01.108Z,120.73
2018-02-09T19:28:31.837Z,123.13
2018-02-09T19:31:01.737Z,118.93
2018-02-09T19:33:30.860Z,111.87
2018-02-09T19:35:59.963Z,119.97
2018-02-09T19:38:29.114Z,120.23
2018-02-09T19:40:58.735Z,125.33
2018-02-09T19:43:27.860Z,122.23
2018-02-09T19:45:56.982Z,128.37
2018-02-09T19:48:26.970Z,108.80
2018-02-09T19:50:56.863Z,121.47
2018-02-09T19:53:25.988Z,126.50
2018-02-09T19:55:55.136Z,121.87
2018-02-09T19:58:24.258Z,132.60
2018-02-09T20:00:54.153Z,124.30
2018-02-09T20:03:23.318Z,125.10
2018-02-09T20:05:52.426Z,123.37
2018-02-09T20:08:21.562Z,124.10
2018-02-09T20:10:51.447Z,137.57
2018-02-09T20:13:22.077Z,129.43
2018-02-09T20:15:51.994Z,122.60
2018-02-09T20:18:21.110Z,124.90
2018-02-09T20:20:50.249Z,120.20
2018-02-09T20:23:19.362Z,134.20
2018-02-09T20:25:49.275Z,129.87
2018-02-09T20:28:19.197Z,145.53
2018-02-09T20:30:48.297Z,138.77
2018-02-09T20:33:17.412Z,123.20
2018-02-09T20:35:46.542Z,133.53
2018-02-09T20:38:15.677Z,129.73
2018-02-09T20:40:44.805Z,132.30
2018-02-09T20:43:13.941Z,119.63
2018-02-09T20:45:43.068Z,125.77
2018-02-09T20:48:12.185Z,117.90
2018-02-09T20:50:42.409Z,123.90
2018-02-09T20:53:11.536Z,130.43
2018-02-09T20:55:40.666Z,130.33
2018-02-09T20:58:09.788Z,127.00
2018-02-09T21:00:38.907Z,117.93
2018-02-09T21:03:08.031Z,136.87
2018-02-09T21:05:37.162Z,110.10
2018-02-09T21:08:06.285Z,120.13
2018-02-09T21:10:35.399Z,116.13
2018-02-09T21:13:05.301Z,114.40
2018-02-09T21:15:34.468Z,110.03
2018-02-09T21:18:03.567Z,118.33
2018-02-09T21:20:32.687Z,106.10
2018-02-09T21:23:01.828Z,106.73
2018-02-09T21:25:30.935Z,114.27
2018-02-09T21:28:00.072Z,122.33
2018-02-09T21:30:30.822Z,119.80
2018-02-09T21:32:59.961Z,110.87
2018-02-09T21:35:29.067Z,118.87
2018-02-09T21:37:58.212Z,126.57
2018-02-09T21:40:27.492Z,126.77
2018-02-09T21:42:56.603Z,122.13
2018-02-09T21:45:26.317Z,118.03
2018-02-09T21:47:55.523Z,121.23
2018-02-09T21:50:24.655Z,122.17
2018-02-09T21:52:54.996Z,114.47
2018-02-09T21:55:24.913Z,118.13
2018-02-09T21:57:54.039Z,109.50
2018-02-09T22:00:23.179Z,116.93
2018-02-09T22:02:52.322Z,124.17
2018-02-09T22:05:21.430Z,117.27
2018-02-09T22:07:50.548Z,130.17
2018-02-09T22:10:20.435Z,118.67
2018-02-09T22:12:49.568Z,134.63
2018-02-09T22:15:18.694Z,124.57
2018-02-09T22:17:47.802Z,134.20
2018-02-09T22:20:16.949Z,136.73
2018-02-09T22:22:46.840Z,141.00
2018-02-09T22:25:15.984Z,119.53
2018-02-09T22:27:45.857Z,136.83
2018-02-09T22:30:14.995Z,133.43
2018-02-09T22:32:44.102Z,134.37
2018-02-09T22:35:13.229Z,130.90
2018-02-09T22:37:42.350Z,123.70
2018-02-09T22:40:12.270Z,137.73
2018-02-09T22:42:42.146Z,129.47
2018-02-09T22:45:11.268Z,130.63
2018-02-09T22:47:40.394Z,136.27
2018-02-09T22:50:09.506Z,131.50
2018-02-09T22:52:38.614Z,138.07
2018-02-09T22:55:07.738Z,130.43
2018-02-09T22:57:38.230Z,133.73
2018-02-09T23:00:07.345Z,122.20
2018-02-09T23:02:36.488Z,133.17
2018-02-09T23:05:06.699Z,145.80
2018-02-09T23:07:36.562Z,131.57
2018-02-09T23:10:05.697Z,130.23
2018-02-09T23:12:34.801Z,126.00
2018-02-09T23:15:03.918Z,122.97
2018-02-09T23:17:33.850Z,111.87
2018-02-09T23:20:02.972Z,108.90
2018-02-09T23:22:32.851Z,128.27
2018-02-09T23:25:01.968Z,106.00
2018-02-09T23:27:31.091Z,113.93
2018-02-09T23:30:00.206Z,112.07
2018-02-09T23:32:30.112Z,116.67
2018-02-09T23:34:59.512Z,128.83
2018-02-09T23:37:28.605Z,119.20
2018-02-09T23:39:57.704Z,126.23
2018-02-09T23:42:26.834Z,122.07
2018-02-09T23:44:55.935Z,117.80
2018-02-09T23:47:25.046Z,114.90
2018-02-09T23:49:54.150Z,118.00
2018-02-09T23:52:24.041Z,126.27
2018-02-09T23:54:53.917Z,128.17
2018-02-09T23:57:23.041Z,134.07
2018-02-09T23:59:52.140Z,131.83
